sensor_id;sensor_type;location;lat;lon;timestamp;P1;P2;P0
73973;PMS5003;62336;-26.094;27.994;2023-04-06T00:02:06;19;18;
73973;PMS5003;62336;-26.094;27.994;2023-04-06T00:04:32;15;14;
73973;PMS5003;62336;-26.094;27.994;2023-04-06T00:06:57;20;19;
73973;PMS5003;62336;-26.094;27.994;2023-04-06T00:09:22;18;17;
73973;PMS5003;62336;-26.094;27.994;2023-04-06T00:11:47;15;15;
73973;PMS5003;62336;-26.094;27.994;2023-04-06T00:14:12;16;16;
73973;PMS5003;62336;-26.094;27.994;2023-04-06T00:16:37;15;14;
73973;PMS5003;62336;-26.094;27.994;2023-04-06T00:19:03;16;14;
73973;PMS5003;62336;-26.094;27.994;2023-04-06T00:21:29;14;13;
73973;PMS5003;62336;-26.094;27.994;2023-04-06T00:23:54;16;15;
73973;PMS5003;62336;-26.094;27.994;2023-04-06T00:26:19;14;13;
73973;PMS5003;62336;-26.094;27.994;2023-04-06T00:28:44;12;11;
73973;PMS5003;62336;-26.094;27.994;2023-04-06T00:31:10;18;18;
73973;PMS5003;62336;-26.094;27.994;2023-04-06T00:33:35;13;13;
73973;PMS5003;62336;-26.094;27.994;2023-04-06T00:36:00;16;13;
73973;PMS5003;62336;-26.094;27.994;2023-04-06T00:38:25;21;17;
73973;PMS5003;62336;-26.094;27.994;2023-04-06T00:40:51;12;12;
73973;PMS5003;62336;-26.094;27.994;2023-04-06T00:43:16;13;11;
73973;PMS5003;62336;-26.094;27.994;2023-04-06T00:45:42;16;14;
73973;PMS5003;62336;-26.094;27.994;2023-04-06T00:48:08;13;12;
73973;PMS5003;62336;-26.094;27.994;2023-04-06T00:50:33;12;12;
73973;PMS5003;62336;-26.094;27.994;2023-04-06T00:52:58;15;12;
73973;PMS5003;62336;-26.094;27.994;2023-04-06T00:55:23;14;13;
73973;PMS5003;62336;-26.094;27.994;2023-04-06T00:57:49;15;14;
73973;PMS5003;62336;-26.094;27.994;2023-04-06T01:00:15;12;12;
73973;PMS5003;62336;-26.094;27.994;2023-04-06T01:02:40;13;13;
73973;PMS5003;62336;-26.094;27.994;2023-04-06T01:05:06;15;13;
73973;PMS5003;62336;-26.094;27.994;2023-04-06T01:07:32;13;12;
73973;PMS5003;62336;-26.094;27.994;2023-04-06T01:09:57;15;14;
73973;PMS5003;62336;-26.094;27.994;2023-04-06T01:12:24;16;13;
73973;PMS5003;62336;-26.094;27.994;2023-04-06T01:14:49;13;13;
73973;PMS5003;62336;-26.094;27.994;2023-04-06T01:17:14;14;13;
73973;PMS5003;62336;-26.094;27.994;2023-04-06T01:19:39;12;11;
73973;PMS5003;62336;-26.094;27.994;2023-04-06T01:22:04;15;15;
73973;PMS5003;62336;-26.094;27.994;2023-04-06T01:24:30;14;14;
73973;PMS5003;62336;-26.094;27.994;2023-04-06T01:26:55;13;12;
73973;PMS5003;62336;-26.094;27.994;2023-04-06T01:29:20;16;15;
73973;PMS5003;62336;-26.094;27.994;2023-04-06T01:31:46;13;12;
73973;PMS5003;62336;-26.094;27.994;2023-04-06T01:34:11;12;11;
73973;PMS5003;62336;-26.094;27.994;2023-04-06T01:36:37;14;14;
73973;PMS5003;62336;-26.094;27.994;2023-04-06T01:39:02;14;14;
73973;PMS5003;62336;-26.094;27.994;2023-04-06T01:41:28;17;16;
73973;PMS5003;62336;-26.094;27.994;2023-04-06T01:43:53;12;12;
73973;PMS5003;62336;-26.094;27.994;2023-04-06T01:46:18;15;14;
73973;PMS5003;62336;-26.094;27.994;2023-04-06T01:48:44;13;13;
73973;PMS5003;62336;-26.094;27.994;2023-04-06T01:51:09;13;13;
73973;PMS5003;62336;-26.094;27.994;2023-04-06T01:53:35;12;12;
73973;PMS5003;62336;-26.094;27.994;2023-04-06T01:55:59;12;12;
73973;PMS5003;62336;-26.094;27.994;2023-04-06T01:58:25;14;13;
73973;PMS5003;62336;-26.094;27.994;2023-04-06T02:00:50;14;13;
73973;PMS5003;62336;-26.094;27.994;2023-04-06T02:03:15;15;14;
73973;PMS5003;62336;-26.094;27.994;2023-04-06T02:05:41;14;13;
73973;PMS5003;62336;-26.094;27.994;2023-04-06T02:08:07;13;12;
73973;PMS5003;62336;-26.094;27.994;2023-04-06T02:10:32;17;16;
73973;PMS5003;62336;-26.094;27.994;2023-04-06T02:12:58;13;11;
73973;PMS5003;62336;-26.094;27.994;2023-04-06T02:15:24;14;13;
73973;PMS5003;62336;-26.094;27.994;2023-04-06T02:17:49;14;13;
73973;PMS5003;62336;-26.094;27.994;2023-04-06T02:20:15;13;13;
73973;PMS5003;62336;-26.094;27.994;2023-04-06T02:22:40;14;14;
73973;PMS5003;62336;-26.094;27.994;2023-04-06T02:25:06;15;15;
73973;PMS5003;62336;-26.094;27.994;2023-04-06T02:27:30;15;15;
73973;PMS5003;62336;-26.094;27.994;2023-04-06T02:29:55;12;12;
73973;PMS5003;62336;-26.094;27.994;2023-04-06T02:32:21;17;16;
73973;PMS5003;62336;-26.094;27.994;2023-04-06T02:34:46;14;13;
73973;PMS5003;62336;-26.094;27.994;2023-04-06T02:37:11;13;13;
73973;PMS5003;62336;-26.094;27.994;2023-04-06T02:39:36;14;11;
73973;PMS5003;62336;-26.094;27.994;2023-04-06T02:42:01;16;13;
73973;PMS5003;62336;-26.094;27.994;2023-04-06T02:44:26;15;14;
73973;PMS5003;62336;-26.094;27.994;2023-04-06T02:46:51;15;14;
73973;PMS5003;62336;-26.094;27.994;2023-04-06T02:49:17;13;13;
73973;PMS5003;62336;-26.094;27.994;2023-04-06T02:51:42;16;14;
73973;PMS5003;62336;-26.094;27.994;2023-04-06T02:54:08;16;14;
73973;PMS5003;62336;-26.094;27.994;2023-04-06T02:56:33;15;13;
73973;PMS5003;62336;-26.094;27.994;2023-04-06T02:58:59;16;13;
73973;PMS5003;62336;-26.094;27.994;2023-04-06T03:01:25;14;13;
73973;PMS5003;62336;-26.094;27.994;2023-04-06T03:03:50;13;13;
73973;PMS5003;62336;-26.094;27.994;2023-04-06T03:06:15;15;14;
73973;PMS5003;62336;-26.094;27.994;2023-04-06T03:08:40;15;15;
73973;PMS5003;62336;-26.094;27.994;2023-04-06T03:11:05;17;16;
73973;PMS5003;62336;-26.094;27.994;2023-04-06T03:13:30;20;17;
73973;PMS5003;62336;-26.094;27.994;2023-04-06T03:15:55;19;18;
73973;PMS5003;62336;-26.094;27.994;2023-04-06T03:18:21;17;17;
73973;PMS5003;62336;-26.094;27.994;2023-04-06T03:20:46;20;19;
73973;PMS5003;62336;-26.094;27.994;2023-04-06T03:23:11;20;19;
73973;PMS5003;62336;-26.094;27.994;2023-04-06T03:25:36;20;19;
73973;PMS5003;62336;-26.094;27.994;2023-04-06T03:28:02;19;18;
73973;PMS5003;62336;-26.094;27.994;2023-04-06T03:30:27;18;18;
73973;PMS5003;62336;-26.094;27.994;2023-04-06T03:32:53;21;19;
73973;PMS5003;62336;-26.094;27.994;2023-04-06T03:35:18;15;14;
73973;PMS5003;62336;-26.094;27.994;2023-04-06T03:37:43;20;19;
73973;PMS5003;62336;-26.094;27.994;2023-04-06T03:40:09;18;18;
73973;PMS5003;62336;-26.094;27.994;2023-04-06T03:42:34;18;18;
73973;PMS5003;62336;-26.094;27.994;2023-04-06T03:44:59;20;19;
73973;PMS5003;62336;-26.094;27.994;2023-04-06T03:47:25;20;16;
73973;PMS5003;62336;-26.094;27.994;2023-04-06T03:49:51;18;18;
73973;PMS5003;62336;-26.094;27.994;2023-04-06T03:52:16;19;18;
73973;PMS5003;62336;-26.094;27.994;2023-04-06T03:54:42;16;16;
73973;PMS5003;62336;-26.094;27.994;2023-04-06T03:57:07;17;16;
73973;PMS5003;62336;-26.094;27.994;2023-04-06T03:59:33;21;19;
73973;PMS5003;62336;-26.094;27.994;2023-04-06T04:01:58;18;17;
73973;PMS5003;62336;-26.094;27.994;2023-04-06T04:04:23;20;19;
73973;PMS5003;62336;-26.094;27.994;2023-04-06T04:06:49;18;17;
73973;PMS5003;62336;-26.094;27.994;2023-04-06T04:09:14;16;15;
73973;PMS5003;62336;-26.094;27.994;2023-04-06T04:11:39;23;21;
73973;PMS5003;62336;-26.094;27.994;2023-04-06T04:14:05;15;15;
73973;PMS5003;62336;-26.094;27.994;2023-04-06T04:16:31;15;14;
73973;PMS5003;62336;-26.094;27.994;2023-04-06T04:18:56;19;18;
73973;PMS5003;62336;-26.094;27.994;2023-04-06T04:21:21;21;21;
73973;PMS5003;62336;-26.094;27.994;2023-04-06T04:23:46;19;18;
73973;PMS5003;62336;-26.094;27.994;2023-04-06T04:26:12;18;18;
73973;PMS5003;62336;-26.094;27.994;2023-04-06T04:28:38;19;19;
73973;PMS5003;62336;-26.094;27.994;2023-04-06T04:31:03;17;17;
73973;PMS5003;62336;-26.094;27.994;2023-04-06T04:33:29;19;17;
73973;PMS5003;62336;-26.094;27.994;2023-04-06T04:35:55;19;17;
73973;PMS5003;62336;-26.094;27.994;2023-04-06T04:38:20;19;18;
73973;PMS5003;62336;-26.094;27.994;2023-04-06T04:40:46;18;18;
73973;PMS5003;62336;-26.094;27.994;2023-04-06T04:43:11;21;20;
73973;PMS5003;62336;-26.094;27.994;2023-04-06T04:45:36;20;18;
73973;PMS5003;62336;-26.094;27.994;2023-04-06T04:48:02;22;20;
73973;PMS5003;62336;-26.094;27.994;2023-04-06T04:50:28;24;22;
73973;PMS5003;62336;-26.094;27.994;2023-04-06T04:52:53;26;24;
73973;PMS5003;62336;-26.094;27.994;2023-04-06T04:55:18;21;21;
73973;PMS5003;62336;-26.094;27.994;2023-04-06T04:57:44;21;21;
73973;PMS5003;62336;-26.094;27.994;2023-04-06T05:00:10;23;21;
73973;PMS5003;62336;-26.094;27.994;2023-04-06T05:02:35;22;20;
73973;PMS5003;62336;-26.094;27.994;2023-04-06T05:05:00;20;19;
73973;PMS5003;62336;-26.094;27.994;2023-04-06T05:07:25;22;19;
73973;PMS5003;62336;-26.094;27.994;2023-04-06T05:09:51;19;19;
73973;PMS5003;62336;-26.094;27.994;2023-04-06T05:12:16;20;20;
73973;PMS5003;62336;-26.094;27.994;2023-04-06T05:14:42;24;21;
73973;PMS5003;62336;-26.094;27.994;2023-04-06T05:17:07;25;22;
73973;PMS5003;62336;-26.094;27.994;2023-04-06T05:19:32;23;23;
73973;PMS5003;62336;-26.094;27.994;2023-04-06T05:21:57;25;24;
73973;PMS5003;62336;-26.094;27.994;2023-04-06T05:24:23;24;24;
73973;PMS5003;62336;-26.094;27.994;2023-04-06T05:26:48;22;21;
73973;PMS5003;62336;-26.094;27.994;2023-04-06T05:29:14;24;22;
73973;PMS5003;62336;-26.094;27.994;2023-04-06T05:31:39;25;22;
73973;PMS5003;62336;-26.094;27.994;2023-04-06T05:34:05;26;21;
73973;PMS5003;62336;-26.094;27.994;2023-04-06T05:36:30;21;20;
73973;PMS5003;62336;-26.094;27.994;2023-04-06T05:38:56;20;19;
73973;PMS5003;62336;-26.094;27.994;2023-04-06T05:41:21;20;20;
73973;PMS5003;62336;-26.094;27.994;2023-04-06T05:43:46;26;25;
73973;PMS5003;62336;-26.094;27.994;2023-04-06T05:46:11;25;23;
73973;PMS5003;62336;-26.094;27.994;2023-04-06T05:48:37;30;28;
73973;PMS5003;62336;-26.094;27.994;2023-04-06T05:51:02;26;24;
73973;PMS5003;62336;-26.094;27.994;2023-04-06T05:53:28;22;22;
73973;PMS5003;62336;-26.094;27.994;2023-04-06T05:55:53;23;23;
73973;PMS5003;62336;-26.094;27.994;2023-04-06T05:58:18;29;27;
73973;PMS5003;62336;-26.094;27.994;2023-04-06T06:00:43;23;23;
73973;PMS5003;62336;-26.094;27.994;2023-04-06T06:03:09;22;22;
73973;PMS5003;62336;-26.094;27.994;2023-04-06T06:05:34;25;23;
73973;PMS5003;62336;-26.094;27.994;2023-04-06T06:08:00;31;29;
73973;PMS5003;62336;-26.094;27.994;2023-04-06T06:10:26;25;24;
73973;PMS5003;62336;-26.094;27.994;2023-04-06T06:12:51;23;23;
73973;PMS5003;62336;-26.094;27.994;2023-04-06T06:15:17;19;18;
73973;PMS5003;62336;-26.094;27.994;2023-04-06T06:17:42;24;22;
73973;PMS5003;62336;-26.094;27.994;2023-04-06T06:20:08;26;24;
73973;PMS5003;62336;-26.094;27.994;2023-04-06T06:22:32;26;22;
73973;PMS5003;62336;-26.094;27.994;2023-04-06T06:24:58;31;26;
73973;PMS5003;62336;-26.094;27.994;2023-04-06T06:27:24;24;21;
73973;PMS5003;62336;-26.094;27.994;2023-04-06T06:29:49;25;23;
73973;PMS5003;62336;-26.094;27.994;2023-04-06T06:32:15;28;26;
73973;PMS5003;62336;-26.094;27.994;2023-04-06T06:34:41;24;23;
73973;PMS5003;62336;-26.094;27.994;2023-04-06T06:37:07;25;24;
73973;PMS5003;62336;-26.094;27.994;2023-04-06T06:39:32;25;24;
73973;PMS5003;62336;-26.094;27.994;2023-04-06T06:41:57;24;24;
73973;PMS5003;62336;-26.094;27.994;2023-04-06T06:44:23;32;26;
73973;PMS5003;62336;-26.094;27.994;2023-04-06T06:46:48;31;29;
73973;PMS5003;62336;-26.094;27.994;2023-04-06T06:49:14;29;28;
73973;PMS5003;62336;-26.094;27.994;2023-04-06T06:51:39;30;29;
73973;PMS5003;62336;-26.094;27.994;2023-04-06T06:54:04;30;26;
73973;PMS5003;62336;-26.094;27.994;2023-04-06T06:56:29;24;23;
73973;PMS5003;62336;-26.094;27.994;2023-04-06T06:58:54;25;22;
73973;PMS5003;62336;-26.094;27.994;2023-04-06T07:01:20;25;25;
73973;PMS5003;62336;-26.094;27.994;2023-04-06T07:03:45;25;24;
73973;PMS5003;62336;-26.094;27.994;2023-04-06T07:06:11;24;22;
73973;PMS5003;62336;-26.094;27.994;2023-04-06T07:08:36;27;27;
73973;PMS5003;62336;-26.094;27.994;2023-04-06T07:11:01;26;23;
73973;PMS5003;62336;-26.094;27.994;2023-04-06T07:13:26;26;23;
73973;PMS5003;62336;-26.094;27.994;2023-04-06T07:15:52;22;21;
73973;PMS5003;62336;-26.094;27.994;2023-04-06T07:18:18;21;21;
73973;PMS5003;62336;-26.094;27.994;2023-04-06T07:20:44;22;22;
73973;PMS5003;62336;-26.094;27.994;2023-04-06T07:23:09;23;21;
73973;PMS5003;62336;-26.094;27.994;2023-04-06T07:25:34;24;24;
73973;PMS5003;62336;-26.094;27.994;2023-04-06T07:28:00;24;23;
73973;PMS5003;62336;-26.094;27.994;2023-04-06T07:30:25;24;22;
73973;PMS5003;62336;-26.094;27.994;2023-04-06T07:32:51;26;23;
73973;PMS5003;62336;-26.094;27.994;2023-04-06T07:35:16;29;26;
73973;PMS5003;62336;-26.094;27.994;2023-04-06T07:37:42;25;24;
73973;PMS5003;62336;-26.094;27.994;2023-04-06T07:40:07;25;23;
73973;PMS5003;62336;-26.094;27.994;2023-04-06T07:42:32;32;32;
73973;PMS5003;62336;-26.094;27.994;2023-04-06T07:44:57;28;24;
73973;PMS5003;62336;-26.094;27.994;2023-04-06T07:47:23;27;26;
73973;PMS5003;62336;-26.094;27.994;2023-04-06T07:49:48;26;23;
73973;PMS5003;62336;-26.094;27.994;2023-04-06T07:52:13;28;27;
73973;PMS5003;62336;-26.094;27.994;2023-04-06T07:54:40;33;30;
73973;PMS5003;62336;-26.094;27.994;2023-04-06T07:57:04;29;27;
73973;PMS5003;62336;-26.094;27.994;2023-04-06T07:59:29;33;30;
73973;PMS5003;62336;-26.094;27.994;2023-04-06T08:01:55;24;24;
73973;PMS5003;62336;-26.094;27.994;2023-04-06T08:04:21;26;25;
73973;PMS5003;62336;-26.094;27.994;2023-04-06T08:06:47;27;27;
73973;PMS5003;62336;-26.094;27.994;2023-04-06T08:09:12;29;27;
73973;PMS5003;62336;-26.094;27.994;2023-04-06T08:11:38;27;25;
73973;PMS5003;62336;-26.094;27.994;2023-04-06T08:14:03;25;24;
73973;PMS5003;62336;-26.094;27.994;2023-04-06T08:16:28;30;28;
73973;PMS5003;62336;-26.094;27.994;2023-04-06T08:18:54;29;27;
73973;PMS5003;62336;-26.094;27.994;2023-04-06T08:21:19;30;28;
73973;PMS5003;62336;-26.094;27.994;2023-04-06T08:23:44;29;27;
73973;PMS5003;62336;-26.094;27.994;2023-04-06T08:26:10;27;27;
73973;PMS5003;62336;-26.094;27.994;2023-04-06T08:28:34;30;27;
73973;PMS5003;62336;-26.094;27.994;2023-04-06T08:31:03;27;26;
73973;PMS5003;62336;-26.094;27.994;2023-04-06T08:33:25;30;26;
73973;PMS5003;62336;-26.094;27.994;2023-04-06T08:35:51;28;26;
73973;PMS5003;62336;-26.094;27.994;2023-04-06T08:38:16;27;26;
73973;PMS5003;62336;-26.094;27.994;2023-04-06T08:40:42;39;34;
73973;PMS5003;62336;-26.094;27.994;2023-04-06T08:43:08;28;27;
73973;PMS5003;62336;-26.094;27.994;2023-04-06T08:45:34;30;27;
73973;PMS5003;62336;-26.094;27.994;2023-04-06T08:47:59;26;25;
73973;PMS5003;62336;-26.094;27.994;2023-04-06T08:50:24;32;29;
73973;PMS5003;62336;-26.094;27.994;2023-04-06T08:52:50;25;24;
73973;PMS5003;62336;-26.094;27.994;2023-04-06T08:55:15;34;31;
73973;PMS5003;62336;-26.094;27.994;2023-04-06T08:57:42;29;26;
73973;PMS5003;62336;-26.094;27.994;2023-04-06T09:00:07;25;25;
73973;PMS5003;62336;-26.094;27.994;2023-04-06T09:02:32;33;27;
73973;PMS5003;62336;-26.094;27.994;2023-04-06T09:04:57;30;27;
73973;PMS5003;62336;-26.094;27.994;2023-04-06T09:07:23;33;31;
73973;PMS5003;62336;-26.094;27.994;2023-04-06T09:09:48;25;24;
73973;PMS5003;62336;-26.094;27.994;2023-04-06T09:14:39;28;28;
73973;PMS5003;62336;-26.094;27.994;2023-04-06T09:17:05;33;30;
73973;PMS5003;62336;-26.094;27.994;2023-04-06T09:19:31;38;36;
73973;PMS5003;62336;-26.094;27.994;2023-04-06T09:22:03;31;30;
73973;PMS5003;62336;-26.094;27.994;2023-04-06T09:24:22;36;36;
73973;PMS5003;62336;-26.094;27.994;2023-04-06T09:26:48;36;34;
73973;PMS5003;62336;-26.094;27.994;2023-04-06T09:31:39;36;32;
73973;PMS5003;62336;-26.094;27.994;2023-04-06T09:34:05;33;31;
73973;PMS5003;62336;-26.094;27.994;2023-04-06T09:36:30;28;27;
73973;PMS5003;62336;-26.094;27.994;2023-04-06T09:38:56;34;32;
73973;PMS5003;62336;-26.094;27.994;2023-04-06T09:41:22;32;32;
73973;PMS5003;62336;-26.094;27.994;2023-04-06T09:43:46;31;30;
73973;PMS5003;62336;-26.094;27.994;2023-04-06T09:46:11;28;26;
73973;PMS5003;62336;-26.094;27.994;2023-04-06T09:48:36;33;31;
73973;PMS5003;62336;-26.094;27.994;2023-04-06T09:51:03;29;29;
73973;PMS5003;62336;-26.094;27.994;2023-04-06T09:53:27;32;27;
73973;PMS5003;62336;-26.094;27.994;2023-04-06T09:55:53;31;31;
73973;PMS5003;62336;-26.094;27.994;2023-04-06T09:58:18;30;27;
73973;PMS5003;62336;-26.094;27.994;2023-04-06T10:00:46;36;32;
73973;PMS5003;62336;-26.094;27.994;2023-04-06T10:03:12;37;29;
73973;PMS5003;62336;-26.094;27.994;2023-04-06T10:05:37;25;24;
73973;PMS5003;62336;-26.094;27.994;2023-04-06T10:08:02;41;38;
73973;PMS5003;62336;-26.094;27.994;2023-04-06T10:10:26;33;30;
73973;PMS5003;62336;-26.094;27.994;2023-04-06T10:12:51;35;34;
73973;PMS5003;62336;-26.094;27.994;2023-04-06T10:15:17;34;30;
73973;PMS5003;62336;-26.094;27.994;2023-04-06T10:17:43;32;32;
73973;PMS5003;62336;-26.094;27.994;2023-04-06T10:20:10;25;24;
73973;PMS5003;62336;-26.094;27.994;2023-04-06T10:22:35;25;24;
73973;PMS5003;62336;-26.094;27.994;2023-04-06T10:24:59;27;25;
73973;PMS5003;62336;-26.094;27.994;2023-04-06T10:27:28;28;26;
73973;PMS5003;62336;-26.094;27.994;2023-04-06T10:29:51;32;31;
73973;PMS5003;62336;-26.094;27.994;2023-04-06T10:32:16;27;26;
73973;PMS5003;62336;-26.094;27.994;2023-04-06T10:34:42;25;24;
73973;PMS5003;62336;-26.094;27.994;2023-04-06T10:37:12;32;30;
73973;PMS5003;62336;-26.094;27.994;2023-04-06T10:39:33;33;31;
73973;PMS5003;62336;-26.094;27.994;2023-04-06T10:41:58;30;30;
73973;PMS5003;62336;-26.094;27.994;2023-04-06T10:44:23;27;27;
73973;PMS5003;62336;-26.094;27.994;2023-04-06T10:46:54;32;30;
73973;PMS5003;62336;-26.094;27.994;2023-04-06T10:49:13;32;31;
73973;PMS5003;62336;-26.094;27.994;2023-04-06T10:51:39;26;25;
73973;PMS5003;62336;-26.094;27.994;2023-04-06T10:54:05;26;25;
73973;PMS5003;62336;-26.094;27.994;2023-04-06T10:56:29;27;25;
73973;PMS5003;62336;-26.094;27.994;2023-04-06T10:58:55;26;25;
73973;PMS5003;62336;-26.094;27.994;2023-04-06T11:01:21;26;23;
73973;PMS5003;62336;-26.094;27.994;2023-04-06T11:03:46;22;22;
73973;PMS5003;62336;-26.094;27.994;2023-04-06T11:08:37;27;26;
73973;PMS5003;62336;-26.094;27.994;2023-04-06T11:11:04;26;25;
73973;PMS5003;62336;-26.094;27.994;2023-04-06T11:15:53;26;25;
73973;PMS5003;62336;-26.094;27.994;2023-04-06T11:18:19;22;22;
73973;PMS5003;62336;-26.094;27.994;2023-04-06T11:20:47;30;28;
73973;PMS5003;62336;-26.094;27.994;2023-04-06T11:23:09;30;28;
73973;PMS5003;62336;-26.094;27.994;2023-04-06T11:25:35;26;24;
73973;PMS5003;62336;-26.094;27.994;2023-04-06T11:28:00;25;24;
73973;PMS5003;62336;-26.094;27.994;2023-04-06T11:30:25;26;25;
73973;PMS5003;62336;-26.094;27.994;2023-04-06T11:32:50;25;23;
73973;PMS5003;62336;-26.094;27.994;2023-04-06T11:35:20;24;22;
73973;PMS5003;62336;-26.094;27.994;2023-04-06T11:37:43;21;20;
73973;PMS5003;62336;-26.094;27.994;2023-04-06T11:40:08;22;21;
73973;PMS5003;62336;-26.094;27.994;2023-04-06T11:42:32;29;24;
73973;PMS5003;62336;-26.094;27.994;2023-04-06T11:44:57;21;21;
73973;PMS5003;62336;-26.094;27.994;2023-04-06T11:47:27;28;22;
73973;PMS5003;62336;-26.094;27.994;2023-04-06T11:49:48;18;17;
73973;PMS5003;62336;-26.094;27.994;2023-04-06T11:52:15;17;17;
73973;PMS5003;62336;-26.094;27.994;2023-04-06T11:54:39;17;17;
73973;PMS5003;62336;-26.094;27.994;2023-04-06T11:57:04;18;17;
73973;PMS5003;62336;-26.094;27.994;2023-04-06T11:59:30;15;14;
73973;PMS5003;62336;-26.094;27.994;2023-04-06T12:01:56;19;18;
73973;PMS5003;62336;-26.094;27.994;2023-04-06T12:04:20;19;19;
73973;PMS5003;62336;-26.094;27.994;2023-04-06T12:06:46;18;18;
73973;PMS5003;62336;-26.094;27.994;2023-04-06T12:09:11;17;17;
73973;PMS5003;62336;-26.094;27.994;2023-04-06T12:11:36;17;16;
73973;PMS5003;62336;-26.094;27.994;2023-04-06T12:14:02;13;13;
73973;PMS5003;62336;-26.094;27.994;2023-04-06T12:16:27;15;15;
73973;PMS5003;62336;-26.094;27.994;2023-04-06T12:18:53;14;14;
73973;PMS5003;62336;-26.094;27.994;2023-04-06T12:21:18;17;16;
73973;PMS5003;62336;-26.094;27.994;2023-04-06T12:23:44;12;12;
73973;PMS5003;62336;-26.094;27.994;2023-04-06T12:26:10;13;13;
73973;PMS5003;62336;-26.094;27.994;2023-04-06T12:28:35;17;17;
73973;PMS5003;62336;-26.094;27.994;2023-04-06T12:30:59;17;17;
73973;PMS5003;62336;-26.094;27.994;2023-04-06T12:33:25;22;19;
73973;PMS5003;62336;-26.094;27.994;2023-04-06T12:35:51;36;35;
73973;PMS5003;62336;-26.094;27.994;2023-04-06T12:38:16;28;26;
73973;PMS5003;62336;-26.094;27.994;2023-04-06T12:40:42;24;22;
73973;PMS5003;62336;-26.094;27.994;2023-04-06T12:43:07;20;19;
73973;PMS5003;62336;-26.094;27.994;2023-04-06T12:45:32;21;20;
73973;PMS5003;62336;-26.094;27.994;2023-04-06T12:47:58;24;21;
73973;PMS5003;62336;-26.094;27.994;2023-04-06T12:50:23;20;18;
73973;PMS5003;62336;-26.094;27.994;2023-04-06T12:52:48;17;17;
73973;PMS5003;62336;-26.094;27.994;2023-04-06T12:55:14;17;16;
73973;PMS5003;62336;-26.094;27.994;2023-04-06T12:57:39;17;15;
73973;PMS5003;62336;-26.094;27.994;2023-04-06T13:00:08;17;15;
73973;PMS5003;62336;-26.094;27.994;2023-04-06T13:02:31;18;17;
73973;PMS5003;62336;-26.094;27.994;2023-04-06T13:04:56;14;13;
73973;PMS5003;62336;-26.094;27.994;2023-04-06T13:07:21;12;12;
73973;PMS5003;62336;-26.094;27.994;2023-04-06T13:09:47;14;13;
73973;PMS5003;62336;-26.094;27.994;2023-04-06T13:12:12;12;11;
73973;PMS5003;62336;-26.094;27.994;2023-04-06T13:14:37;11;11;
73973;PMS5003;62336;-26.094;27.994;2023-04-06T13:17:02;13;13;
73973;PMS5003;62336;-26.094;27.994;2023-04-06T13:19:27;18;18;
73973;PMS5003;62336;-26.094;27.994;2023-04-06T13:21:53;13;11;
73973;PMS5003;62336;-26.094;27.994;2023-04-06T13:24:18;14;14;
73973;PMS5003;62336;-26.094;27.994;2023-04-06T13:26:43;12;12;
73973;PMS5003;62336;-26.094;27.994;2023-04-06T13:29:08;16;14;
73973;PMS5003;62336;-26.094;27.994;2023-04-06T13:31:33;11;11;
73973;PMS5003;62336;-26.094;27.994;2023-04-06T13:33:59;12;12;
73973;PMS5003;62336;-26.094;27.994;2023-04-06T13:36:23;12;12;
73973;PMS5003;62336;-26.094;27.994;2023-04-06T13:38:49;13;12;
73973;PMS5003;62336;-26.094;27.994;2023-04-06T13:41:18;13;13;
73973;PMS5003;62336;-26.094;27.994;2023-04-06T13:43:40;13;12;
73973;PMS5003;62336;-26.094;27.994;2023-04-06T13:46:06;11;11;
73973;PMS5003;62336;-26.094;27.994;2023-04-06T13:48:31;12;11;
73973;PMS5003;62336;-26.094;27.994;2023-04-06T13:50:57;11;10;
73973;PMS5003;62336;-26.094;27.994;2023-04-06T13:53:22;13;12;
73973;PMS5003;62336;-26.094;27.994;2023-04-06T13:58:12;13;13;
73973;PMS5003;62336;-26.094;27.994;2023-04-06T14:00:37;13;13;
73973;PMS5003;62336;-26.094;27.994;2023-04-06T14:03:02;12;12;
73973;PMS5003;62336;-26.094;27.994;2023-04-06T14:05:30;12;12;
73973;PMS5003;62336;-26.094;27.994;2023-04-06T14:07:52;12;11;
73973;PMS5003;62336;-26.094;27.994;2023-04-06T14:10:18;11;11;
73973;PMS5003;62336;-26.094;27.994;2023-04-06T14:12:43;11;10;
73973;PMS5003;62336;-26.094;27.994;2023-04-06T14:15:08;11;11;
73973;PMS5003;62336;-26.094;27.994;2023-04-06T14:17:33;12;11;
73973;PMS5003;62336;-26.094;27.994;2023-04-06T14:19:59;12;12;
73973;PMS5003;62336;-26.094;27.994;2023-04-06T14:22:24;13;12;
73973;PMS5003;62336;-26.094;27.994;2023-04-06T14:24:49;13;13;
73973;PMS5003;62336;-26.094;27.994;2023-04-06T14:27:14;11;10;
73973;PMS5003;62336;-26.094;27.994;2023-04-06T14:29:39;12;11;
73973;PMS5003;62336;-26.094;27.994;2023-04-06T14:32:04;11;11;
73973;PMS5003;62336;-26.094;27.994;2023-04-06T14:34:29;10;10;
73973;PMS5003;62336;-26.094;27.994;2023-04-06T14:36:54;11;11;
73973;PMS5003;62336;-26.094;27.994;2023-04-06T14:39:19;12;12;
73973;PMS5003;62336;-26.094;27.994;2023-04-06T14:41:45;12;11;
73973;PMS5003;62336;-26.094;27.994;2023-04-06T14:44:10;17;16;
73973;PMS5003;62336;-26.094;27.994;2023-04-06T14:46:35;19;19;
73973;PMS5003;62336;-26.094;27.994;2023-04-06T14:49:01;24;23;
73973;PMS5003;62336;-26.094;27.994;2023-04-06T14:51:26;21;20;
73973;PMS5003;62336;-26.094;27.994;2023-04-06T14:53:52;22;22;
73973;PMS5003;62336;-26.094;27.994;2023-04-06T14:56:21;29;28;
73973;PMS5003;62336;-26.094;27.994;2023-04-06T14:58:43;30;28;
73973;PMS5003;62336;-26.094;27.994;2023-04-06T15:01:08;28;27;
73973;PMS5003;62336;-26.094;27.994;2023-04-06T15:03:34;31;28;
73973;PMS5003;62336;-26.094;27.994;2023-04-06T15:05:59;28;25;
73973;PMS5003;62336;-26.094;27.994;2023-04-06T15:08:25;29;28;
73973;PMS5003;62336;-26.094;27.994;2023-04-06T15:10:50;24;24;
73973;PMS5003;62336;-26.094;27.994;2023-04-06T15:13:16;26;25;
73973;PMS5003;62336;-26.094;27.994;2023-04-06T15:15:41;25;23;
73973;PMS5003;62336;-26.094;27.994;2023-04-06T15:18:07;28;27;
73973;PMS5003;62336;-26.094;27.994;2023-04-06T15:20:32;28;27;
73973;PMS5003;62336;-26.094;27.994;2023-04-06T15:22:57;26;25;
73973;PMS5003;62336;-26.094;27.994;2023-04-06T15:25:22;28;28;
73973;PMS5003;62336;-26.094;27.994;2023-04-06T15:27:48;33;32;
73973;PMS5003;62336;-26.094;27.994;2023-04-06T15:30:13;29;29;
73973;PMS5003;62336;-26.094;27.994;2023-04-06T15:32:39;30;28;
73973;PMS5003;62336;-26.094;27.994;2023-04-06T15:35:08;30;30;
73973;PMS5003;62336;-26.094;27.994;2023-04-06T15:37:30;34;33;
73973;PMS5003;62336;-26.094;27.994;2023-04-06T15:39:55;29;28;
73973;PMS5003;62336;-26.094;27.994;2023-04-06T15:42:21;28;28;
73973;PMS5003;62336;-26.094;27.994;2023-04-06T15:44:46;36;33;
73973;PMS5003;62336;-26.094;27.994;2023-04-06T15:47:12;33;31;